Time;durP1;ratioP1;P1;durP2;ratioP2;P2;SDS_P1;SDS_P2;PMS_P1;PMS_P2;Temp;Humidity;BMP_temperature;BMP_pressure;BME280_temperature;BME280_humidity;BME280_pressure;Samples;Min_cycle;Max_cycle;Signal;HPM_P1;HPM_P2
2022/09/01 00:02:08;;;;;;;6.57;2.70;;;;;;;19.86;53.81;100839.31;4114438;28;20635;-63
2022/09/01 00:04:12;;;;;;;;;;;;;;;19.73;53.85;100833.34;4114423;28;20038;-62
2022/09/01 00:06:21;;;;;;;7.38;2.92;;;;;;;19.80;53.80;100828.84;4128263;28;19922;-63
2022/09/01 00:08:24;;;;;;;3.75;2.30;;;;;;;19.84;53.42;100833.19;4113724;28;20122;-62
2022/09/01 00:10:27;;;;;;;3.92;2.75;;;;;;;19.87;53.67;100827.84;4113455;28;20073;-62
2022/09/01 00:12:30;;;;;;;3.60;2.75;;;;;;;19.88;53.13;100833.09;4114493;28;20043;-62
2022/09/01 00:14:38;;;;;;;4.72;2.72;;;;;;;19.85;53.27;100824.38;4114319;28;20039;-65
2022/09/01 00:16:43;;;;;;;6.35;2.75;;;;;;;19.80;53.69;100824.47;4114451;28;20097;-62
2022/09/01 00:18:49;;;;;;;4.35;3.00;;;;;;;19.79;53.66;100822.72;4115497;28;20047;-62
2022/09/01 00:20:54;;;;;;;5.03;2.95;;;;;;;19.77;53.50;100827.13;4117541;28;20035;-63
2022/09/01 00:22:59;;;;;;;6.63;2.70;;;;;;;19.76;53.99;100824.53;4117582;28;20042;-62
2022/09/01 00:25:02;;;;;;;5.45;3.08;;;;;;;19.73;53.89;100825.44;4117008;28;20045;-63
2022/09/01 00:27:05;;;;;;;4.65;3.00;;;;;;;19.73;53.69;100832.47;4116814;28;20047;-62
2022/09/01 00:29:08;;;;;;;7.07;2.80;;;;;;;19.84;53.42;100814.72;4115883;28;20571;-62
2022/09/01 00:31:13;;;;;;;4.38;2.83;;;;;;;19.77;53.64;100811.31;4099433;29;20057;-62
2022/09/01 00:33:16;;;;;;;3.97;2.90;;;;;;;19.77;53.78;100823.59;4132335;28;20053;-63
2022/09/01 00:35:20;;;;;;;4.55;2.85;;;;;;;19.80;53.99;100820.94;4116178;28;20034;-62
2022/09/01 00:37:23;;;;;;;5.13;3.30;;;;;;;19.79;53.74;100819.22;4116467;28;20130;-63
2022/09/01 00:39:26;;;;;;;3.95;2.50;;;;;;;19.74;53.91;100821.88;4101872;28;20424;-62
2022/09/01 00:41:31;;;;;;;6.72;2.70;;;;;;;19.79;54.06;100825.34;4131308;28;20044;-63
2022/09/01 00:43:40;;;;;;;5.57;2.63;;;;;;;19.76;53.87;100830.66;4132174;28;20105;-63
2022/09/01 00:45:43;;;;;;;5.43;2.42;;;;;;;19.69;54.54;100826.38;4116384;28;20039;-63
2022/09/01 00:47:47;;;;;;;4.57;2.55;;;;;;;19.67;54.59;100826.41;4126922;28;20050;-62
2022/09/01 00:49:51;;;;;;;4.05;2.50;;;;;;;19.63;55.26;100824.72;4130802;28;20070;-63
2022/09/01 00:51:58;;;;;;;4.50;2.50;;;;;;;19.60;55.50;100823.91;4115093;28;20042;-63
2022/09/01 00:54:02;;;;;;;5.53;2.53;;;;;;;19.58;55.46;100828.34;4114688;28;20053;-63
2022/09/01 00:56:06;;;;;;;6.23;2.57;;;;;;;19.56;55.76;100824.88;4132230;28;20459;-62
2022/09/01 00:58:09;;;;;;;4.78;2.60;;;;;;;19.52;56.29;100821.41;4131758;28;20046;-63
2022/09/01 01:00:24;;;;;;;5.22;2.67;;;;;;;19.48;56.66;100825.88;4117383;28;20047;-63
2022/09/01 01:02:27;;;;;;;3.03;2.58;;;;;;;19.46;56.20;100832.06;4116989;28;20046;-63
2022/09/01 01:04:31;;;;;;;4.22;3.15;;;;;;;19.46;56.87;100832.91;4109071;28;20050;-62
2022/09/01 01:06:34;;;;;;;5.20;3.20;;;;;;;19.41;57.06;100829.50;4114256;28;20118;-63
2022/09/01 01:08:42;;;;;;;4.38;2.70;;;;;;;19.43;57.24;100822.41;4116505;28;20038;-63
2022/09/01 01:10:45;;;;;;;6.20;3.00;;;;;;;19.43;57.26;100822.41;4115714;28;20055;-63
2022/09/01 01:12:51;;;;;;;7.38;3.42;;;;;;;19.38;57.37;100832.19;4114955;28;20535;-63
2022/09/01 01:14:55;;;;;;;6.38;3.80;;;;;;;19.35;57.14;100830.47;4116157;28;20130;-63
2022/09/01 01:17:00;;;;;;;6.93;4.72;;;;;;;19.41;56.14;100826.00;4115309;28;20045;-63
2022/09/01 01:19:04;;;;;;;5.88;3.85;;;;;;;19.41;56.06;100826.84;4115796;28;20130;-63
2022/09/01 01:23:40;;;;;;;4.43;3.50;;;;;;;19.44;56.67;100831.22;4116105;28;20455;-62
2022/09/01 01:25:48;;;;;;;4.88;3.58;;;;;;;19.45;56.13;100825.03;4116728;28;20409;-62
2022/09/01 01:27:52;;;;;;;8.25;4.03;;;;;;;19.46;56.42;100821.50;4113450;28;20043;-62
2022/09/01 01:29:55;;;;;;;5.15;4.10;;;;;;;19.45;55.99;100819.75;4113562;28;20131;-62
2022/09/01 01:31:59;;;;;;;10.43;4.18;;;;;;;19.43;56.33;100821.56;4108006;28;20065;-62
2022/09/01 01:34:05;;;;;;;6.15;4.60;;;;;;;19.41;56.52;100821.59;4099255;29;20051;-63
2022/09/01 01:36:12;;;;;;;8.52;4.15;;;;;;;19.38;56.72;100824.28;4112418;28;20039;-62
2022/09/01 01:38:15;;;;;;;6.28;3.75;;;;;;;19.39;56.66;100819.88;4115203;28;20039;-63
2022/09/01 01:40:21;;;;;;;6.35;4.00;;;;;;;19.35;56.86;100822.56;4099516;28;20043;-62
2022/09/01 01:42:27;;;;;;;5.38;3.92;;;;;;;19.29;57.33;100820.03;4115270;28;20106;-63
2022/09/01 01:44:30;;;;;;;6.03;4.50;;;;;;;19.38;56.78;100819.00;4117048;28;20058;-63
2022/09/01 01:46:42;;;;;;;7.03;4.35;;;;;;;19.35;57.17;100819.91;4114386;28;20030;-63
2022/09/01 01:48:46;;;;;;;4.40;3.70;;;;;;;19.26;57.17;100820.06;4130942;28;20041;-63
2022/09/01 01:50:53;;;;;;;6.50;3.90;;;;;;;19.21;57.47;100821.91;4117709;28;20043;-62
2022/09/01 01:52:58;;;;;;;7.05;3.92;;;;;;;19.23;57.56;100824.50;4115335;28;20046;-63
2022/09/01 01:55:02;;;;;;;6.95;4.70;;;;;;;19.20;57.80;100820.16;4128953;28;20085;-62
2022/09/01 01:57:07;;;;;;;7.70;4.38;;;;;;;19.16;57.58;100826.38;4099322;29;20091;-62
2022/09/01 01:59:14;;;;;;;6.95;4.32;;;;;;;19.19;57.80;100829.84;4097906;29;20585;-62
2022/09/01 02:01:20;;;;;;;7.63;4.20;;;;;;;19.12;57.86;100822.91;4115176;28;20039;-62
2022/09/01 02:03:37;;;;;;;6.05;4.22;;;;;;;19.12;57.79;100828.19;4115731;28;20050;-62
2022/09/01 02:05:40;;;;;;;8.70;4.60;;;;;;;19.09;58.38;100817.69;4112055;28;20035;-63
2022/09/01 02:07:43;;;;;;;7.00;4.50;;;;;;;19.13;57.96;100824.66;4116726;28;20055;-63
2022/09/01 02:09:47;;;;;;;7.38;4.20;;;;;;;19.13;58.21;100824.66;4114990;28;20130;-63
2022/09/01 02:11:55;;;;;;;7.03;5.05;;;;;;;19.14;58.16;100817.63;4106950;28;20098;-63
2022/09/01 02:13:59;;;;;;;7.40;5.32;;;;;;;19.12;57.78;100815.00;4114630;28;20081;-63
2022/09/01 02:16:11;;;;;;;6.53;5.03;;;;;;;19.08;58.07;100817.72;4113877;28;20110;-63
2022/09/01 02:18:18;;;;;;;7.78;4.88;;;;;;;19.04;58.18;100819.53;4113253;28;20475;-63
2022/09/01 02:20:23;;;;;;;8.35;5.20;;;;;;;19.05;57.85;100820.41;4115015;28;20078;-62
2022/09/01 02:22:27;;;;;;;8.52;5.70;;;;;;;19.02;58.41;100818.69;4114176;28;20039;-63
2022/09/01 02:24:30;;;;;;;6.32;4.65;;;;;;;18.99;58.09;100824.00;4115087;28;20065;-62
2022/09/01 02:26:38;;;;;;;11.10;5.10;;;;;;;18.98;58.50;100822.25;4114515;28;20066;-62
2022/09/01 02:28:42;;;;;;;9.75;4.78;;;;;;;18.92;58.67;100817.94;4097499;29;20126;-62
2022/09/01 02:30:50;;;;;;;8.27;5.10;;;;;;;18.95;58.59;100825.81;4115500;28;20050;-63
2022/09/01 02:32:57;;;;;;;8.65;5.00;;;;;;;18.88;59.17;100820.63;4107467;28;20046;-63
2022/09/01 02:35:01;;;;;;;9.98;4.72;;;;;;;18.87;59.16;100818.91;4097961;28;20603;-63
2022/09/01 02:37:04;;;;;;;9.63;4.25;;;;;;;18.83;59.17;100826.81;4130678;28;20117;-63
2022/09/01 02:39:07;;;;;;;7.32;4.43;;;;;;;18.79;59.13;100819.88;4113826;28;20397;-63
2022/09/01 02:41:10;;;;;;;10.32;5.10;;;;;;;18.83;59.11;100820.69;4113879;28;20574;-63
2022/09/01 02:43:18;;;;;;;7.97;5.00;;;;;;;18.81;59.49;100823.34;4114151;28;20161;-63
2022/09/01 02:45:22;;;;;;;8.98;5.30;;;;;;;18.79;59.07;100819.88;4097929;28;20109;-63
2022/09/01 02:47:27;;;;;;;9.43;6.05;;;;;;;18.77;59.60;100821.63;4130338;28;20090;-63
2022/09/01 02:49:34;;;;;;;6.90;4.88;;;;;;;18.76;59.66;100825.19;4130281;28;20034;-63
2022/09/01 02:51:38;;;;;;;7.35;4.22;;;;;;;18.76;59.41;100814.66;4114429;28;20042;-62
2022/09/01 02:53:42;;;;;;;6.03;4.27;;;;;;;18.73;59.38;100817.28;4108361;28;20066;-63
2022/09/01 02:55:45;;;;;;;6.63;4.82;;;;;;;18.66;59.74;100816.53;4111015;28;20039;-62
2022/09/01 02:57:49;;;;;;;5.75;4.63;;;;;;;18.69;60.05;100825.25;4128420;28;20041;-62
2022/09/01 02:59:57;;;;;;;6.57;4.38;;;;;;;18.66;60.12;100819.16;4106559;28;20102;-62
2022/09/01 03:02:01;;;;;;;5.05;4.03;;;;;;;18.62;60.49;100824.50;4129892;28;20038;-62
2022/09/01 03:04:06;;;;;;;5.97;4.18;;;;;;;18.60;60.51;100818.34;4115744;28;20066;-62
2022/09/01 03:06:11;;;;;;;5.43;3.92;;;;;;;18.55;61.46;100814.94;4112034;28;20051;-62
2022/09/01 03:08:15;;;;;;;6.28;4.20;;;;;;;18.56;61.25;100816.66;4098809;28;20066;-62
2022/09/01 03:10:20;;;;;;;7.78;4.18;;;;;;;18.55;61.46;100820.19;4114536;28;20039;-62
2022/09/01 03:12:27;;;;;;;7.75;4.93;;;;;;;18.56;61.23;100820.19;4129887;28;20097;-62
2022/09/01 03:14:30;;;;;;;6.25;4.50;;;;;;;18.56;61.22;100827.19;4114511;28;20043;-63
2022/09/01 03:16:35;;;;;;;8.32;4.90;;;;;;;18.59;60.71;100820.13;4111732;28;20039;-63
2022/09/01 03:18:38;;;;;;;;;;;;;;;18.40;61.34;100816.88;4098914;28;20039;-62
2022/09/01 03:20:45;;;;;;;7.97;4.75;;;;;;;18.43;61.70;100819.44;4113221;28;19926;-62
2022/09/01 03:22:50;;;;;;;7.45;4.80;;;;;;;18.43;61.88;100818.59;4129369;28;20077;-62
2022/09/01 03:24:55;;;;;;;8.55;5.55;;;;;;;18.39;61.77;100817.75;4129205;28;20035;-62
2022/09/01 03:27:01;;;;;;;5.95;4.32;;;;;;;18.38;62.01;100812.50;4129608;28;20484;-62
2022/09/01 03:29:05;;;;;;;11.32;4.45;;;;;;;18.36;62.27;100814.28;4115651;28;20575;-62
2022/09/01 03:31:08;;;;;;;8.93;5.00;;;;;;;18.31;62.68;100827.47;4113105;28;20053;-62
2022/09/01 03:33:12;;;;;;;5.85;4.75;;;;;;;18.30;62.75;100818.72;4113581;28;20046;-63
2022/09/01 03:35:16;;;;;;;7.53;4.45;;;;;;;18.32;62.46;100821.34;4095015;29;20432;-63
2022/09/01 03:37:19;;;;;;;5.72;4.50;;;;;;;18.27;62.54;100825.81;4124058;28;20109;-63
2022/09/01 03:39:24;;;;;;;6.80;4.10;;;;;;;18.28;62.50;100830.16;4127365;28;20038;-63
2022/09/01 03:41:29;;;;;;;7.60;4.68;;;;;;;18.22;62.83;100827.59;4123398;28;20428;-64
2022/09/01 03:43:36;;;;;;;7.30;4.85;;;;;;;18.25;62.68;100820.56;4111784;28;20041;-64
2022/09/01 03:45:47;;;;;;;5.57;4.50;;;;;;;18.24;62.59;100825.84;4129410;28;20095;-64
2022/09/01 03:47:51;;;;;;;6.65;4.30;;;;;;;18.25;62.79;100825.81;4128651;28;20519;-64
2022/09/01 03:49:55;;;;;;;6.72;4.97;;;;;;;18.27;62.37;100825.81;4113850;28;20074;-61
2022/09/01 03:52:00;;;;;;;9.05;4.15;;;;;;;18.61;61.86;100826.22;4095175;28;20391;-69
2022/09/01 03:54:03;;;;;;;7.38;3.60;;;;;;;19.00;61.08;100828.38;4125794;28;20035;-69
2022/09/01 03:56:10;;;;;;;7.30;4.03;;;;;;;19.24;60.57;100831.53;4114139;28;20042;-69
2022/09/01 03:58:17;;;;;;;7.35;3.75;;;;;;;19.39;60.06;100833.03;4128818;28;20487;-69
2022/09/01 04:00:24;;;;;;;8.98;3.75;;;;;;;19.55;59.83;100829.25;4125034;28;20089;-68
2022/09/01 04:02:29;;;;;;;6.30;3.90;;;;;;;19.69;59.05;100829.03;4127766;28;20088;-69
2022/09/01 04:04:32;;;;;;;5.93;4.13;;;;;;;19.74;59.09;100827.16;4113774;28;20063;-68
2022/09/01 04:06:37;;;;;;;8.30;3.83;;;;;;;19.73;59.32;100824.56;4112184;28;20039;-69
2022/09/01 04:08:40;;;;;;;7.97;4.80;;;;;;;19.72;58.33;100828.97;4127782;28;20041;-69
2022/09/01 04:10:48;;;;;;;7.82;5.35;;;;;;;19.56;57.94;100823.09;4111979;28;20600;-69
2022/09/01 04:12:58;;;;;;;10.50;6.03;;;;;;;19.38;58.04;100823.38;4105283;28;20038;-71
2022/09/01 04:15:00;;;;;;;6.53;4.07;;;;;;;19.11;58.69;100826.44;4110657;28;20046;-63
2022/09/01 04:19:35;;;;;;;7.32;4.60;;;;;;;18.79;59.79;100825.13;4122170;28;20054;-64
2022/09/01 04:21:38;;;;;;;5.97;4.18;;;;;;;18.66;60.18;100827.06;4136234;28;20066;-63
2022/09/01 04:23:41;;;;;;;8.18;4.70;;;;;;;18.56;60.62;100822.81;4114958;28;20043;-63
2022/09/01 04:25:45;;;;;;;6.47;4.20;;;;;;;18.46;61.13;100826.44;4115471;28;20050;-63
2022/09/01 04:27:49;;;;;;;7.25;4.85;;;;;;;18.41;61.58;100826.50;4112208;28;20034;-63
2022/09/01 04:29:55;;;;;;;7.82;4.03;;;;;;;18.30;61.92;100825.75;4105621;28;20053;-63
2022/09/01 04:32:06;;;;;;;6.88;4.05;;;;;;;18.26;61.71;100824.91;4107947;28;20039;-63
2022/09/01 04:34:12;;;;;;;12.07;4.97;;;;;;;18.17;62.03;100829.44;4097731;29;20139;-63
2022/09/01 04:36:22;;;;;;;8.35;4.28;;;;;;;18.06;62.72;100833.06;4113229;28;20047;-63
2022/09/01 04:38:28;;;;;;;6.93;4.07;;;;;;;18.04;62.75;100824.28;4129143;28;20038;-63
2022/09/01 04:40:31;;;;;;;6.72;4.47;;;;;;;17.98;62.96;100834.88;4114055;28;20066;-64
2022/09/01 04:42:34;;;;;;;5.90;3.95;;;;;;;17.98;62.40;100829.63;4130179;28;20038;-63
2022/09/01 04:44:39;;;;;;;8.50;4.03;;;;;;;18.00;62.19;100827.84;4129760;28;20042;-63
2022/09/01 04:46:45;;;;;;;8.10;4.00;;;;;;;17.96;62.21;100827.00;4129121;28;20372;-64
2022/09/01 04:48:52;;;;;;;7.25;4.40;;;;;;;18.00;62.00;100822.56;4129918;28;20133;-64
2022/09/01 04:50:57;;;;;;;6.68;3.65;;;;;;;17.98;62.27;100829.63;4113607;28;20433;-63
2022/09/01 04:53:05;;;;;;;8.27;4.57;;;;;;;17.99;62.12;100830.47;4128551;28;20093;-64
2022/09/01 04:55:19;;;;;;;6.35;4.60;;;;;;;17.96;62.20;100827.00;4126044;28;20137;-64
2022/09/01 04:57:27;;;;;;;7.45;4.72;;;;;;;18.01;61.95;100824.31;4113819;28;20070;-63
2022/09/01 04:59:31;;;;;;;8.48;5.10;;;;;;;18.02;61.94;100828.72;4113055;28;20393;-63
2022/09/01 05:01:42;;;;;;;9.95;4.47;;;;;;;18.02;62.23;100827.81;4130106;28;20472;-63
2022/09/01 05:03:55;;;;;;;9.77;5.45;;;;;;;18.05;61.83;100826.03;4116553;28;20043;-63
2022/09/01 05:06:16;;;;;;;9.95;5.55;;;;;;;18.11;61.62;100823.34;4116945;28;20089;-63
2022/09/01 05:08:24;;;;;;;9.70;5.85;;;;;;;18.08;61.72;100825.16;4116802;28;20520;-63
2022/09/01 05:10:33;;;;;;;8.02;5.60;;;;;;;18.09;61.44;100827.75;4131878;28;20121;-64
2022/09/01 05:12:51;;;;;;;9.88;4.97;;;;;;;18.06;61.47;100819.91;4132746;28;20046;-63
2022/09/01 05:14:54;;;;;;;8.15;5.00;;;;;;;18.09;61.58;100825.13;4125771;28;20455;-63
2022/09/01 05:16:59;;;;;;;9.45;5.72;;;;;;;18.07;61.51;100826.88;4118008;28;20043;-63
2022/09/01 05:19:05;;;;;;;15.57;6.40;;;;;;;18.09;61.41;100825.13;4115528;28;20125;-63
2022/09/01 05:21:10;;;;;;;11.13;5.78;;;;;;;18.13;61.10;100826.81;4116749;28;20569;-63
2022/09/01 05:23:16;;;;;;;12.00;6.47;;;;;;;18.10;61.30;100828.63;4116385;28;20500;-63
2022/09/01 05:25:19;;;;;;;9.25;6.55;;;;;;;17.99;61.47;100828.75;4116714;28;20094;-63
2022/09/01 05:27:22;;;;;;;11.90;6.03;;;;;;;17.96;61.29;100832.28;4116732;28;20039;-63
2022/09/01 05:29:26;;;;;;;12.27;6.93;;;;;;;17.96;61.42;100831.41;4114338;28;20484;-63
2022/09/01 05:31:33;;;;;;;11.65;6.80;;;;;;;17.97;61.70;100838.38;4116533;28;20045;-63
2022/09/01 05:33:38;;;;;;;13.48;6.20;;;;;;;18.03;61.50;100833.06;4115124;28;20043;-63
2022/09/01 05:35:52;;;;;;;10.60;6.15;;;;;;;18.00;61.65;100835.72;4115277;28;20041;-64
2022/09/01 05:37:58;;;;;;;13.63;6.18;;;;;;;18.00;61.93;100838.34;4125304;28;20046;-63
2022/09/01 05:40:01;;;;;;;7.85;5.50;;;;;;;18.00;61.86;100838.34;4116409;28;20539;-64
2022/09/01 05:42:06;;;;;;;10.23;5.57;;;;;;;18.05;61.39;100840.97;4131000;28;20038;-63
2022/09/01 05:44:14;;;;;;;11.95;6.13;;;;;;;18.08;61.07;100841.78;4098071;29;20043;-63
2022/09/01 05:46:21;;;;;;;9.00;5.40;;;;;;;18.06;61.20;100834.78;4116290;28;20640;-63
2022/09/01 05:48:25;;;;;;;12.25;5.82;;;;;;;18.10;61.13;100840.00;4100493;29;20099;-63
2022/09/01 05:50:28;;;;;;;10.50;5.78;;;;;;;18.22;60.75;100841.63;4116230;28;20134;-63
2022/09/01 05:52:33;;;;;;;11.10;6.50;;;;;;;18.25;60.34;100849.50;4116251;28;20042;-63
2022/09/01 05:54:36;;;;;;;10.20;5.47;;;;;;;18.13;60.53;100842.59;4113126;28;20121;-63
2022/09/01 05:56:41;;;;;;;9.43;5.68;;;;;;;18.08;60.89;100841.78;4114967;28;20070;-63
2022/09/01 05:58:47;;;;;;;8.25;5.47;;;;;;;18.07;60.65;100845.31;4116070;28;20047;-63
2022/09/01 06:01:15;;;;;;;6.97;5.28;;;;;;;18.09;60.92;100843.53;4132094;28;20038;-63
2022/09/01 06:03:19;;;;;;;11.35;6.13;;;;;;;18.11;60.86;100849.66;4114930;28;20150;-63
2022/09/01 06:05:25;;;;;;;9.48;6.13;;;;;;;18.13;60.68;100850.50;4130801;28;20034;-63
2022/09/01 06:07:29;;;;;;;8.48;5.88;;;;;;;18.19;60.92;100844.28;4131852;28;20516;-63
2022/09/01 06:09:39;;;;;;;10.13;6.13;;;;;;;18.31;60.41;100851.16;4115822;28;20046;-63
2022/09/01 06:11:42;;;;;;;11.98;7.30;;;;;;;18.37;60.42;100850.22;4131909;28;20043;-64
2022/09/01 06:13:47;;;;;;;11.07;5.95;;;;;;;18.35;60.30;100850.25;4113644;28;20547;-63
2022/09/01 06:15:57;;;;;;;8.65;6.05;;;;;;;18.41;59.83;100850.22;4124709;28;20046;-63
2022/09/01 06:18:00;;;;;;;10.57;6.35;;;;;;;18.36;60.19;100849.38;4115746;28;20475;-63
2022/09/01 06:20:09;;;;;;;6.88;5.00;;;;;;;18.40;60.32;100853.72;4125517;28;20524;-63
2022/09/01 06:22:13;;;;;;;8.35;5.50;;;;;;;18.40;60.06;100843.19;4115637;28;20034;-63
2022/09/01 06:24:16;;;;;;;14.73;5.45;;;;;;;18.31;60.60;100844.16;4115699;28;20067;-64
2022/09/01 06:26:25;;;;;;;9.85;4.82;;;;;;;18.39;60.00;100846.69;4114733;28;20102;-63
2022/09/01 06:28:29;;;;;;;9.70;4.50;;;;;;;18.40;59.61;100855.47;4115453;28;20030;-63
2022/09/01 06:30:35;;;;;;;7.93;4.33;;;;;;;18.30;60.19;100850.31;4116923;28;20035;-64
2022/09/01 06:32:43;;;;;;;5.55;3.80;;;;;;;18.30;60.29;100846.81;4115693;28;20039;-63
2022/09/01 06:34:49;;;;;;;6.57;4.95;;;;;;;18.35;60.09;100845.00;4114037;28;20053;-63
2022/09/01 06:36:52;;;;;;;11.38;4.93;;;;;;;18.40;59.93;100850.19;4107629;28;20042;-63
2022/09/01 06:38:56;;;;;;;9.43;5.32;;;;;;;18.41;59.54;100839.69;4115390;28;20129;-63
2022/09/01 06:41:02;;;;;;;7.10;4.85;;;;;;;18.44;59.54;100844.91;4113431;28;22015;-63
2022/09/01 06:43:08;;;;;;;9.85;4.25;;;;;;;18.52;59.46;100851.84;4116413;28;20042;-63
2022/09/01 06:45:15;;;;;;;6.13;3.85;;;;;;;18.54;59.25;100844.78;4115388;28;20105;-64
2022/09/01 06:47:18;;;;;;;6.57;4.10;;;;;;;18.55;59.23;100849.16;4116636;28;20043;-63
2022/09/01 06:49:31;;;;;;;6.30;4.15;;;;;;;18.55;58.94;100851.78;4115221;28;20122;-63
2022/09/01 06:51:35;;;;;;;6.45;4.50;;;;;;;18.62;58.60;100859.59;4114496;28;20066;-64
2022/09/01 06:53:39;;;;;;;;;;;;;;;18.49;58.63;100858.88;4116478;28;20030;-63
2022/09/01 06:55:49;;;;;;;7.15;4.75;;;;;;;18.51;59.16;100857.97;4115260;28;20450;-63
2022/09/01 06:57:53;;;;;;;7.85;4.78;;;;;;;18.59;59.01;100864.03;4114476;28;20051;-63
2022/09/01 07:00:19;;;;;;;6.25;4.32;;;;;;;18.60;59.02;100857.84;4128999;28;20532;-63
2022/09/01 07:02:23;;;;;;;8.57;5.10;;;;;;;18.70;58.54;100867.38;4115368;28;20038;-63
2022/09/01 07:04:52;;;;;;;9.02;4.78;;;;;;;18.70;58.72;100870.00;4115639;28;20090;-63
2022/09/01 07:06:56;;;;;;;9.45;5.10;;;;;;;18.78;58.57;100876.06;4115013;28;20046;-63
2022/09/01 07:09:33;;;;;;;16.48;4.90;;;;;;;18.78;58.72;100872.56;4116255;28;20042;-63
2022/09/01 07:12:06;;;;;;;10.07;4.97;;;;;;;18.73;59.13;100875.25;4112968;28;20073;-63
2022/09/01 07:14:30;;;;;;;7.30;4.55;;;;;;;18.68;59.16;100874.44;4114660;28;20066;-63
2022/09/01 07:16:38;;;;;;;9.68;4.97;;;;;;;18.72;58.92;100870.00;4114940;28;20046;-63
2022/09/01 07:19:05;;;;;;;7.18;4.93;;;;;;;18.75;59.19;100876.09;4116218;28;20134;-63
2022/09/01 07:21:09;;;;;;;8.68;5.20;;;;;;;18.83;59.38;100884.75;4113505;28;20047;-63
2022/09/01 07:23:32;;;;;;;8.63;4.60;;;;;;;18.86;59.25;100883.00;4114581;28;20134;-63
2022/09/01 07:25:54;;;;;;;7.80;4.93;;;;;;;18.89;58.87;100883.00;4129808;28;20050;-63
2022/09/01 07:28:14;;;;;;;;;;;;;;;18.83;59.25;100882.13;4126476;28;20041;-63
2022/09/01 07:30:20;;;;;;;8.30;4.93;;;;;;;18.92;59.28;100883.81;4110591;28;19930;-63
2022/09/01 07:32:45;;;;;;;8.75;5.00;;;;;;;19.03;58.84;100883.66;4130729;28;20530;-63
2022/09/01 07:34:51;;;;;;;7.60;5.00;;;;;;;19.00;59.35;100881.94;4114524;28;20515;-63
2022/09/01 07:36:58;;;;;;;8.80;4.90;;;;;;;19.13;59.12;100882.66;4128707;28;20560;-64
2022/09/01 07:39:21;;;;;;;8.07;4.80;;;;;;;19.31;58.66;100884.13;4129652;28;20054;-63
2022/09/01 07:42:08;;;;;;;6.97;4.60;;;;;;;19.40;58.27;100877.84;4109170;28;20039;-63
2022/09/01 07:45:07;;;;;;;8.43;5.32;;;;;;;19.56;58.11;100881.09;4081721;29;20051;-63
2022/09/01 07:47:35;;;;;;;7.65;4.63;;;;;;;19.53;58.26;100881.16;4114287;28;20051;-63
2022/09/01 07:49:58;;;;;;;8.55;5.25;;;;;;;19.65;58.32;100890.63;4098527;28;20058;-63
2022/09/01 07:52:21;;;;;;;7.05;4.45;;;;;;;19.62;58.75;100893.31;4099832;28;20046;-63
2022/09/01 07:54:32;;;;;;;6.32;4.28;;;;;;;19.61;58.87;100894.22;4082163;29;20482;-63
2022/09/01 07:56:36;;;;;;;6.18;4.03;;;;;;;19.65;59.37;100898.53;4105170;28;20389;-63
2022/09/01 07:58:42;;;;;;;12.18;4.72;;;;;;;19.71;59.70;100896.69;4113412;28;20405;-63
2022/09/01 08:00:47;;;;;;;7.40;5.50;;;;;;;19.86;58.01;100897.38;4129230;28;20052;-63
2022/09/01 08:02:52;;;;;;;6.38;4.32;;;;;;;19.80;58.63;100893.06;4114264;28;20085;-63
2022/09/01 08:05:00;;;;;;;7.50;4.70;;;;;;;19.78;58.48;100892.19;4114093;28;20138;-63
2022/09/01 08:07:04;;;;;;;12.20;4.40;;;;;;;19.81;58.55;100899.19;4106525;28;20046;-63
2022/09/01 08:09:09;;;;;;;5.82;4.32;;;;;;;19.80;58.94;100900.97;4124827;28;20129;-63
2022/09/01 08:11:16;;;;;;;6.80;4.53;;;;;;;19.83;59.43;100900.91;4114159;28;20045;-63
2022/09/01 08:13:32;;;;;;;7.88;4.20;;;;;;;19.85;59.82;100901.75;4114078;28;20090;-63
2022/09/01 08:15:43;;;;;;;6.80;4.97;;;;;;;19.77;58.92;100897.47;4129551;28;20121;-63
2022/09/01 08:18:07;;;;;;;9.02;4.47;;;;;;;19.77;59.00;100901.00;4127038;28;20084;-63
2022/09/01 08:20:12;;;;;;;5.70;4.47;;;;;;;19.73;59.34;100901.03;4113011;28;20493;-63
2022/09/01 08:22:34;;;;;;;6.10;4.63;;;;;;;19.72;59.07;100897.56;4128735;28;20038;-63
2022/09/01 08:24:45;;;;;;;7.75;4.63;;;;;;;19.73;59.34;100903.69;4112874;28;20043;-63
2022/09/01 08:26:48;;;;;;;7.18;4.88;;;;;;;19.73;59.72;100904.56;4113999;28;20045;-63
2022/09/01 08:28:52;;;;;;;6.25;5.00;;;;;;;19.76;59.40;100904.53;4115198;28;20053;-63
2022/09/01 08:31:13;;;;;;;7.88;4.93;;;;;;;19.71;59.94;100906.34;4114214;28;20054;-63
2022/09/01 08:33:16;;;;;;;8.82;5.35;;;;;;;19.82;59.33;100909.72;4112831;28;20070;-64
2022/09/01 08:35:23;;;;;;;5.65;4.38;;;;;;;19.96;59.38;100895.41;4114008;28;20440;-63
2022/09/01 08:37:27;;;;;;;6.32;4.45;;;;;;;20.06;59.50;100910.19;4131976;28;20508;-63
2022/09/01 08:39:31;;;;;;;6.63;4.43;;;;;;;20.10;59.19;100909.25;4116002;28;20055;-63
2022/09/01 08:41:43;;;;;;;6.72;4.85;;;;;;;20.22;58.83;100911.66;4117249;28;20366;-63
2022/09/01 08:44:02;;;;;;;5.45;3.88;;;;;;;20.35;59.08;100903.50;4116822;28;20133;-63
2022/09/01 08:46:13;;;;;;;6.32;4.22;;;;;;;20.44;58.85;100897.19;4117321;28;20034;-63
2022/09/01 08:48:19;;;;;;;11.38;4.53;;;;;;;20.53;59.10;100900.50;4116390;28;20527;-63
2022/09/01 08:50:47;;;;;;;7.05;5.30;;;;;;;20.48;58.53;100894.44;4116248;28;20107;-63
2022/09/01 08:53:06;;;;;;;8.23;4.97;;;;;;;20.57;58.49;100899.56;4132829;28;20101;-64
2022/09/01 08:55:19;;;;;;;5.90;4.38;;;;;;;20.68;58.39;100898.50;4116916;28;20444;-63
2022/09/01 08:57:31;;;;;;;6.00;3.85;;;;;;;20.80;58.32;100900.88;4101093;28;20051;-63
2022/09/01 08:59:53;;;;;;;6.68;5.15;;;;;;;20.86;57.14;100895.44;4117276;28;20121;-63
2022/09/01 09:02:26;;;;;;;8.32;4.72;;;;;;;20.88;56.66;100892.75;4116110;28;20059;-63
2022/09/01 09:04:50;;;;;;;8.15;5.18;;;;;;;21.16;56.29;100893.03;4117563;28;20134;-64
2022/09/01 09:07:05;;;;;;;6.28;4.55;;;;;;;21.17;56.48;100899.19;4117216;28;20492;-63
2022/09/01 09:09:09;;;;;;;9.82;6.07;;;;;;;21.40;55.10;100896.00;4117965;28;20050;-63
2022/09/01 09:11:49;;;;;;;8.25;5.22;;;;;;;21.30;55.45;100903.28;4118088;28;20042;-63
2022/09/01 09:14:06;;;;;;;11.10;4.75;;;;;;;21.33;55.15;100902.34;4117690;28;20035;-63
2022/09/01 09:16:10;;;;;;;8.35;4.57;;;;;;;;;;4117119;28;20042;-64
2022/09/01 09:18:19;;;;;;;7.18;5.25;;;;;;;21.58;55.32;100900.00;4117836;28;20125;-63
2022/09/01 09:20:44;;;;;;;4.45;3.65;;;;;;;21.50;55.58;100904.59;4116709;28;20464;-63
2022/09/01 09:22:48;;;;;;;7.47;5.30;;;;;;;21.52;55.28;100898.38;4116883;28;20427;-64
2022/09/01 09:24:54;;;;;;;7.97;4.50;;;;;;;21.53;55.07;100897.47;4110334;28;20045;-64
2022/09/01 09:26:59;;;;;;;6.05;4.60;;;;;;;21.38;55.45;100892.53;4116863;28;20047;-63
2022/09/01 09:29:02;;;;;;;13.23;5.88;;;;;;;21.37;55.21;100886.38;4117696;28;20138;-64
2022/09/01 09:31:31;;;;;;;12.27;6.38;;;;;;;21.50;54.65;100894.03;4117728;28;20043;-63
2022/09/01 09:33:37;;;;;;;9.02;5.97;;;;;;;21.67;55.11;100891.88;4117396;28;20053;-64
2022/09/01 09:35:56;;;;;;;6.97;5.15;;;;;;;21.73;54.24;100882.91;4110288;28;20386;-63
2022/09/01 09:38:21;;;;;;;9.73;6.35;;;;;;;21.79;54.14;100882.75;4117625;28;20151;-63
2022/09/01 09:40:26;;;;;;;5.47;4.63;;;;;;;21.74;53.98;100885.50;4116535;28;20038;-63
2022/09/01 09:42:29;;;;;;;8.07;4.70;;;;;;;21.73;54.40;100878.47;4117598;28;20074;-63
2022/09/01 09:44:43;;;;;;;7.03;4.30;;;;;;;21.71;54.63;100882.94;4097875;29;20067;-64
2022/09/01 09:46:47;;;;;;;10.23;4.72;;;;;;;21.69;54.08;100876.81;4116332;28;20043;-63
2022/09/01 09:49:07;;;;;;;7.82;4.22;;;;;;;21.59;54.57;100881.44;4100241;28;20039;-63
2022/09/01 09:51:17;;;;;;;6.13;3.42;;;;;;;21.61;54.81;100884.94;4101465;28;20046;-63
2022/09/01 09:53:31;;;;;;;7.35;4.75;;;;;;;21.79;54.01;100875.66;4099957;29;20050;-63
2022/09/01 09:55:34;;;;;;;8.32;5.20;;;;;;;22.09;53.00;100866.94;4097877;28;20406;-63
2022/09/01 09:57:40;;;;;;;7.63;4.53;;;;;;;22.01;52.79;100874.25;4114387;28;20062;-63
2022/09/01 09:59:46;;;;;;;5.95;3.60;;;;;;;21.87;53.43;100870.16;4113557;28;20042;-63
2022/09/01 10:02:20;;;;;;;6.93;5.47;;;;;;;21.94;52.65;100866.44;4131358;28;20049;-63
2022/09/01 10:04:36;;;;;;;6.63;4.53;;;;;;;22.00;52.38;100859.25;4131690;28;20038;-63